sensor_id;sensor_type;location;lat;lon;timestamp;P1;durP1;ratioP1;P2;durP2;ratioP2
64011;SDS011;50211;52.768;12.124;2022-10-22T00:01:39;23.95;;;10.73;;
64011;SDS011;50211;52.768;12.124;2022-10-22T00:04:05;24.10;;;11.45;;
64011;SDS011;50211;52.768;12.124;2022-10-22T00:06:30;21.77;;;11.10;;
64011;SDS011;50211;52.768;12.124;2022-10-22T00:08:56;19.20;;;10.68;;
64011;SDS011;50211;52.768;12.124;2022-10-22T00:11:22;21.20;;;10.98;;
64011;SDS011;50211;52.768;12.124;2022-10-22T00:13:47;21.02;;;10.15;;
64011;SDS011;50211;52.768;12.124;2022-10-22T00:16:13;17.90;;;10.70;;
64011;SDS011;50211;52.768;12.124;2022-10-22T00:18:38;20.58;;;10.45;;
64011;SDS011;50211;52.768;12.124;2022-10-22T00:21:04;20.75;;;11.02;;
64011;SDS011;50211;52.768;12.124;2022-10-22T00:23:30;15.45;;;9.60;;
64011;SDS011;50211;52.768;12.124;2022-10-22T00:25:56;18.35;;;10.35;;
64011;SDS011;50211;52.768;12.124;2022-10-22T00:28:21;15.43;;;9.60;;
64011;SDS011;50211;52.768;12.124;2022-10-22T00:30:48;18.52;;;10.55;;
64011;SDS011;50211;52.768;12.124;2022-10-22T00:33:20;18.40;;;9.23;;
64011;SDS011;50211;52.768;12.124;2022-10-22T00:35:46;20.65;;;10.73;;
64011;SDS011;50211;52.768;12.124;2022-10-22T00:38:11;21.30;;;11.07;;
64011;SDS011;50211;52.768;12.124;2022-10-22T00:40:37;22.15;;;11.40;;
64011;SDS011;50211;52.768;12.124;2022-10-22T00:43:02;15.90;;;10.13;;
64011;SDS011;50211;52.768;12.124;2022-10-22T00:45:28;16.58;;;9.95;;
64011;SDS011;50211;52.768;12.124;2022-10-22T00:50:27;14.90;;;9.60;;
64011;SDS011;50211;52.768;12.124;2022-10-22T00:53:00;17.35;;;10.43;;
64011;SDS011;50211;52.768;12.124;2022-10-22T00:55:28;15.05;;;8.43;;
64011;SDS011;50211;52.768;12.124;2022-10-22T00:57:55;18.65;;;9.23;;
64011;SDS011;50211;52.768;12.124;2022-10-22T01:00:22;17.60;;;9.18;;
64011;SDS011;50211;52.768;12.124;2022-10-22T01:02:48;15.60;;;9.38;;
64011;SDS011;50211;52.768;12.124;2022-10-22T01:05:15;16.92;;;8.82;;
64011;SDS011;50211;52.768;12.124;2022-10-22T01:07:46;18.77;;;10.00;;
64011;SDS011;50211;52.768;12.124;2022-10-22T01:10:22;17.40;;;9.82;;
64011;SDS011;50211;52.768;12.124;2022-10-22T01:13:15;16.33;;;8.88;;
64011;SDS011;50211;52.768;12.124;2022-10-22T01:15:58;20.10;;;10.50;;
64011;SDS011;50211;52.768;12.124;2022-10-22T01:18:37;18.90;;;9.68;;
64011;SDS011;50211;52.768;12.124;2022-10-22T01:21:32;23.33;;;9.93;;
64011;SDS011;50211;52.768;12.124;2022-10-22T01:27:42;17.23;;;9.43;;
64011;SDS011;50211;52.768;12.124;2022-10-22T01:30:17;17.73;;;10.30;;
64011;SDS011;50211;52.768;12.124;2022-10-22T01:32:58;19.25;;;10.55;;
64011;SDS011;50211;52.768;12.124;2022-10-22T01:35:31;19.15;;;10.00;;
64011;SDS011;50211;52.768;12.124;2022-10-22T01:38:02;20.00;;;10.68;;
64011;SDS011;50211;52.768;12.124;2022-10-22T01:40:30;17.88;;;10.90;;
64011;SDS011;50211;52.768;12.124;2022-10-22T01:43:02;22.55;;;11.98;;
64011;SDS011;50211;52.768;12.124;2022-10-22T01:45:30;28.10;;;11.95;;
64011;SDS011;50211;52.768;12.124;2022-10-22T01:48:08;22.83;;;12.10;;
64011;SDS011;50211;52.768;12.124;2022-10-22T01:51:17;19.60;;;10.48;;
64011;SDS011;50211;52.768;12.124;2022-10-22T01:53:49;19.40;;;10.95;;
64011;SDS011;50211;52.768;12.124;2022-10-22T02:04:53;20.38;;;10.25;;
64011;SDS011;50211;52.768;12.124;2022-10-22T02:07:25;23.23;;;11.25;;
64011;SDS011;50211;52.768;12.124;2022-10-22T02:09:56;20.33;;;11.27;;
64011;SDS011;50211;52.768;12.124;2022-10-22T02:12:24;19.90;;;11.25;;
64011;SDS011;50211;52.768;12.124;2022-10-22T02:14:52;28.77;;;10.10;;
64011;SDS011;50211;52.768;12.124;2022-10-22T02:17:20;20.75;;;11.48;;
64011;SDS011;50211;52.768;12.124;2022-10-22T02:19:49;17.77;;;10.25;;
64011;SDS011;50211;52.768;12.124;2022-10-22T02:22:19;17.85;;;10.73;;
64011;SDS011;50211;52.768;12.124;2022-10-22T02:24:44;23.48;;;11.45;;
64011;SDS011;50211;52.768;12.124;2022-10-22T02:27:13;18.85;;;10.23;;
64011;SDS011;50211;52.768;12.124;2022-10-22T02:29:55;16.80;;;9.50;;
64011;SDS011;50211;52.768;12.124;2022-10-22T02:32:25;18.48;;;10.88;;
64011;SDS011;50211;52.768;12.124;2022-10-22T02:34:56;18.77;;;9.90;;
64011;SDS011;50211;52.768;12.124;2022-10-22T02:37:24;17.90;;;9.90;;
64011;SDS011;50211;52.768;12.124;2022-10-22T02:39:51;17.02;;;9.45;;
64011;SDS011;50211;52.768;12.124;2022-10-22T02:42:17;18.38;;;10.23;;
64011;SDS011;50211;52.768;12.124;2022-10-22T02:44:43;14.93;;;9.43;;
64011;SDS011;50211;52.768;12.124;2022-10-22T02:47:08;15.35;;;9.43;;
64011;SDS011;50211;52.768;12.124;2022-10-22T02:49:34;16.80;;;9.38;;
64011;SDS011;50211;52.768;12.124;2022-10-22T02:52:00;15.85;;;8.38;;
64011;SDS011;50211;52.768;12.124;2022-10-22T02:54:25;14.05;;;9.38;;
64011;SDS011;50211;52.768;12.124;2022-10-22T02:56:51;14.23;;;8.85;;
64011;SDS011;50211;52.768;12.124;2022-10-22T02:59:16;17.23;;;9.77;;
64011;SDS011;50211;52.768;12.124;2022-10-22T03:01:42;17.70;;;9.02;;
64011;SDS011;50211;52.768;12.124;2022-10-22T03:04:07;15.75;;;8.35;;
64011;SDS011;50211;52.768;12.124;2022-10-22T03:06:33;15.82;;;8.13;;
64011;SDS011;50211;52.768;12.124;2022-10-22T03:08:58;25.20;;;10.48;;
64011;SDS011;50211;52.768;12.124;2022-10-22T03:11:24;13.63;;;7.50;;
64011;SDS011;50211;52.768;12.124;2022-10-22T03:13:49;14.40;;;8.60;;
64011;SDS011;50211;52.768;12.124;2022-10-22T03:16:15;16.20;;;8.93;;
64011;SDS011;50211;52.768;12.124;2022-10-22T03:18:40;13.98;;;7.75;;
64011;SDS011;50211;52.768;12.124;2022-10-22T03:21:11;12.35;;;7.82;;
64011;SDS011;50211;52.768;12.124;2022-10-22T03:23:44;14.57;;;8.63;;
64011;SDS011;50211;52.768;12.124;2022-10-22T03:26:11;12.45;;;8.02;;
64011;SDS011;50211;52.768;12.124;2022-10-22T03:28:38;15.60;;;9.05;;
64011;SDS011;50211;52.768;12.124;2022-10-22T03:31:05;16.55;;;9.02;;
64011;SDS011;50211;52.768;12.124;2022-10-22T03:33:30;16.98;;;8.93;;
64011;SDS011;50211;52.768;12.124;2022-10-22T03:35:56;15.38;;;8.98;;
64011;SDS011;50211;52.768;12.124;2022-10-22T03:38:21;17.15;;;9.20;;
64011;SDS011;50211;52.768;12.124;2022-10-22T03:40:47;17.73;;;9.20;;
64011;SDS011;50211;52.768;12.124;2022-10-22T03:43:13;14.20;;;8.07;;
64011;SDS011;50211;52.768;12.124;2022-10-22T03:45:39;15.98;;;9.30;;
64011;SDS011;50211;52.768;12.124;2022-10-22T03:48:04;15.40;;;9.52;;
64011;SDS011;50211;52.768;12.124;2022-10-22T03:50:30;16.17;;;10.10;;
64011;SDS011;50211;52.768;12.124;2022-10-22T03:52:55;23.88;;;9.88;;
64011;SDS011;50211;52.768;12.124;2022-10-22T03:55:22;14.25;;;8.75;;
64011;SDS011;50211;52.768;12.124;2022-10-22T03:57:48;14.05;;;9.07;;
64011;SDS011;50211;52.768;12.124;2022-10-22T04:00:13;13.63;;;8.32;;
64011;SDS011;50211;52.768;12.124;2022-10-22T04:02:39;15.30;;;8.52;;
64011;SDS011;50211;52.768;12.124;2022-10-22T04:05:05;15.65;;;8.73;;
64011;SDS011;50211;52.768;12.124;2022-10-22T04:07:30;17.45;;;8.95;;
64011;SDS011;50211;52.768;12.124;2022-10-22T04:09:56;14.50;;;8.63;;
64011;SDS011;50211;52.768;12.124;2022-10-22T04:12:21;17.42;;;9.43;;
64011;SDS011;50211;52.768;12.124;2022-10-22T04:14:47;15.20;;;8.75;;
64011;SDS011;50211;52.768;12.124;2022-10-22T04:17:12;25.25;;;9.75;;
64011;SDS011;50211;52.768;12.124;2022-10-22T04:19:38;14.93;;;8.30;;
64011;SDS011;50211;52.768;12.124;2022-10-22T04:22:04;15.82;;;9.63;;
64011;SDS011;50211;52.768;12.124;2022-10-22T04:24:30;19.05;;;8.40;;
64011;SDS011;50211;52.768;12.124;2022-10-22T04:26:56;15.20;;;8.40;;
64011;SDS011;50211;52.768;12.124;2022-10-22T04:29:22;14.23;;;8.70;;
64011;SDS011;50211;52.768;12.124;2022-10-22T04:31:48;17.67;;;9.23;;
64011;SDS011;50211;52.768;12.124;2022-10-22T04:34:13;14.27;;;8.77;;
64011;SDS011;50211;52.768;12.124;2022-10-22T04:36:39;15.32;;;8.55;;
64011;SDS011;50211;52.768;12.124;2022-10-22T04:39:05;17.33;;;9.23;;
64011;SDS011;50211;52.768;12.124;2022-10-22T04:41:31;12.10;;;7.95;;
64011;SDS011;50211;52.768;12.124;2022-10-22T04:43:59;13.75;;;8.73;;
64011;SDS011;50211;52.768;12.124;2022-10-22T04:46:26;12.30;;;7.88;;
64011;SDS011;50211;52.768;12.124;2022-10-22T04:48:53;14.02;;;7.80;;
64011;SDS011;50211;52.768;12.124;2022-10-22T04:51:19;13.93;;;8.70;;
64011;SDS011;50211;52.768;12.124;2022-10-22T04:53:46;13.32;;;8.07;;
64011;SDS011;50211;52.768;12.124;2022-10-22T04:56:13;12.18;;;8.20;;
64011;SDS011;50211;52.768;12.124;2022-10-22T04:58:58;15.23;;;7.97;;
64011;SDS011;50211;52.768;12.124;2022-10-22T05:01:26;12.95;;;8.20;;
64011;SDS011;50211;52.768;12.124;2022-10-22T05:03:54;13.52;;;7.90;;
64011;SDS011;50211;52.768;12.124;2022-10-22T05:06:21;14.68;;;8.18;;
64011;SDS011;50211;52.768;12.124;2022-10-22T05:08:51;14.02;;;8.25;;
64011;SDS011;50211;52.768;12.124;2022-10-22T05:11:23;17.70;;;9.55;;
64011;SDS011;50211;52.768;12.124;2022-10-22T05:13:52;12.40;;;8.27;;
64011;SDS011;50211;52.768;12.124;2022-10-22T05:16:19;16.52;;;9.18;;
64011;SDS011;50211;52.768;12.124;2022-10-22T05:18:44;17.02;;;8.82;;
64011;SDS011;50211;52.768;12.124;2022-10-22T05:21:11;17.38;;;10.13;;
64011;SDS011;50211;52.768;12.124;2022-10-22T05:23:41;16.73;;;9.57;;
64011;SDS011;50211;52.768;12.124;2022-10-22T05:26:08;14.82;;;9.00;;
64011;SDS011;50211;52.768;12.124;2022-10-22T05:28:35;14.02;;;8.73;;
64011;SDS011;50211;52.768;12.124;2022-10-22T05:31:01;16.80;;;9.52;;
64011;SDS011;50211;52.768;12.124;2022-10-22T05:33:29;17.52;;;9.15;;
64011;SDS011;50211;52.768;12.124;2022-10-22T05:35:56;14.23;;;8.23;;
64011;SDS011;50211;52.768;12.124;2022-10-22T05:38:22;15.70;;;8.55;;
64011;SDS011;50211;52.768;12.124;2022-10-22T05:40:47;15.30;;;8.73;;
64011;SDS011;50211;52.768;12.124;2022-10-22T05:43:22;18.15;;;9.48;;
64011;SDS011;50211;52.768;12.124;2022-10-22T05:45:48;17.38;;;9.50;;
64011;SDS011;50211;52.768;12.124;2022-10-22T05:48:13;14.70;;;9.45;;
64011;SDS011;50211;52.768;12.124;2022-10-22T05:50:38;18.75;;;9.40;;
64011;SDS011;50211;52.768;12.124;2022-10-22T05:53:04;14.98;;;8.95;;
64011;SDS011;50211;52.768;12.124;2022-10-22T05:55:33;17.00;;;9.05;;
64011;SDS011;50211;52.768;12.124;2022-10-22T05:58:04;18.10;;;10.35;;
64011;SDS011;50211;52.768;12.124;2022-10-22T06:00:30;15.25;;;9.40;;
64011;SDS011;50211;52.768;12.124;2022-10-22T06:02:56;18.70;;;10.13;;
64011;SDS011;50211;52.768;12.124;2022-10-22T06:05:21;19.58;;;9.82;;
64011;SDS011;50211;52.768;12.124;2022-10-22T06:07:47;17.25;;;9.77;;
64011;SDS011;50211;52.768;12.124;2022-10-22T06:10:13;20.00;;;10.05;;
64011;SDS011;50211;52.768;12.124;2022-10-22T06:12:40;18.50;;;10.27;;
64011;SDS011;50211;52.768;12.124;2022-10-22T06:15:06;19.10;;;10.32;;
64011;SDS011;50211;52.768;12.124;2022-10-22T06:17:33;16.02;;;9.10;;
64011;SDS011;50211;52.768;12.124;2022-10-22T06:19:59;22.38;;;10.93;;
64011;SDS011;50211;52.768;12.124;2022-10-22T06:22:24;16.67;;;8.93;;
64011;SDS011;50211;52.768;12.124;2022-10-22T06:24:50;20.40;;;10.45;;
64011;SDS011;50211;52.768;12.124;2022-10-22T06:27:16;18.50;;;10.10;;
64011;SDS011;50211;52.768;12.124;2022-10-22T06:29:42;17.55;;;9.82;;
64011;SDS011;50211;52.768;12.124;2022-10-22T06:32:07;21.85;;;9.75;;
64011;SDS011;50211;52.768;12.124;2022-10-22T06:34:33;18.48;;;10.05;;
64011;SDS011;50211;52.768;12.124;2022-10-22T06:36:58;19.55;;;10.18;;
64011;SDS011;50211;52.768;12.124;2022-10-22T06:39:24;15.88;;;8.98;;
64011;SDS011;50211;52.768;12.124;2022-10-22T06:41:49;18.50;;;9.85;;
64011;SDS011;50211;52.768;12.124;2022-10-22T06:44:15;20.30;;;9.45;;
64011;SDS011;50211;52.768;12.124;2022-10-22T06:46:42;14.85;;;9.18;;
64011;SDS011;50211;52.768;12.124;2022-10-22T06:49:09;16.45;;;9.38;;
64011;SDS011;50211;52.768;12.124;2022-10-22T06:51:38;17.52;;;8.90;;
64011;SDS011;50211;52.768;12.124;2022-10-22T06:54:03;17.73;;;9.40;;
64011;SDS011;50211;52.768;12.124;2022-10-22T06:56:29;16.65;;;9.88;;
64011;SDS011;50211;52.768;12.124;2022-10-22T06:58:55;20.42;;;10.27;;
64011;SDS011;50211;52.768;12.124;2022-10-22T07:01:24;19.27;;;10.32;;
64011;SDS011;50211;52.768;12.124;2022-10-22T07:03:52;21.05;;;9.55;;
64011;SDS011;50211;52.768;12.124;2022-10-22T07:06:18;15.70;;;9.35;;
64011;SDS011;50211;52.768;12.124;2022-10-22T07:08:44;18.48;;;8.52;;
64011;SDS011;50211;52.768;12.124;2022-10-22T07:11:11;16.60;;;9.45;;
64011;SDS011;50211;52.768;12.124;2022-10-22T07:13:39;17.77;;;10.25;;
64011;SDS011;50211;52.768;12.124;2022-10-22T07:16:05;16.70;;;9.15;;
64011;SDS011;50211;52.768;12.124;2022-10-22T07:18:31;15.68;;;9.25;;
64011;SDS011;50211;52.768;12.124;2022-10-22T07:20:58;16.10;;;9.45;;
64011;SDS011;50211;52.768;12.124;2022-10-22T07:23:24;18.90;;;9.73;;
64011;SDS011;50211;52.768;12.124;2022-10-22T07:25:50;15.98;;;9.30;;
64011;SDS011;50211;52.768;12.124;2022-10-22T07:28:15;15.95;;;9.73;;
64011;SDS011;50211;52.768;12.124;2022-10-22T07:30:41;14.10;;;9.18;;
64011;SDS011;50211;52.768;12.124;2022-10-22T07:33:06;16.25;;;9.00;;
64011;SDS011;50211;52.768;12.124;2022-10-22T07:35:32;15.38;;;9.25;;
64011;SDS011;50211;52.768;12.124;2022-10-22T07:37:58;14.88;;;8.68;;
64011;SDS011;50211;52.768;12.124;2022-10-22T07:40:24;16.35;;;9.65;;
64011;SDS011;50211;52.768;12.124;2022-10-22T07:42:50;17.30;;;8.98;;
64011;SDS011;50211;52.768;12.124;2022-10-22T07:45:15;13.85;;;8.68;;
64011;SDS011;50211;52.768;12.124;2022-10-22T07:47:41;14.25;;;9.65;;
64011;SDS011;50211;52.768;12.124;2022-10-22T07:50:07;14.63;;;9.23;;
64011;SDS011;50211;52.768;12.124;2022-10-22T07:52:33;17.40;;;9.65;;
64011;SDS011;50211;52.768;12.124;2022-10-22T07:54:58;18.00;;;9.95;;
64011;SDS011;50211;52.768;12.124;2022-10-22T07:57:24;14.05;;;8.80;;
64011;SDS011;50211;52.768;12.124;2022-10-22T07:59:49;14.82;;;9.30;;
64011;SDS011;50211;52.768;12.124;2022-10-22T08:02:15;15.13;;;8.48;;
64011;SDS011;50211;52.768;12.124;2022-10-22T08:04:40;18.25;;;8.45;;
64011;SDS011;50211;52.768;12.124;2022-10-22T08:07:06;20.08;;;8.88;;
64011;SDS011;50211;52.768;12.124;2022-10-22T08:09:31;17.30;;;9.20;;
64011;SDS011;50211;52.768;12.124;2022-10-22T08:11:57;14.85;;;8.52;;
64011;SDS011;50211;52.768;12.124;2022-10-22T08:14:22;13.95;;;9.00;;
64011;SDS011;50211;52.768;12.124;2022-10-22T08:16:48;13.23;;;8.15;;
64011;SDS011;50211;52.768;12.124;2022-10-22T08:19:14;12.48;;;7.95;;
64011;SDS011;50211;52.768;12.124;2022-10-22T08:21:45;13.80;;;8.23;;
64011;SDS011;50211;52.768;12.124;2022-10-22T08:24:11;14.40;;;8.82;;
64011;SDS011;50211;52.768;12.124;2022-10-22T08:26:37;10.27;;;7.15;;
64011;SDS011;50211;52.768;12.124;2022-10-22T08:29:02;15.32;;;7.70;;
64011;SDS011;50211;52.768;12.124;2022-10-22T08:31:28;10.77;;;7.43;;
64011;SDS011;50211;52.768;12.124;2022-10-22T08:33:54;16.95;;;7.82;;
64011;SDS011;50211;52.768;12.124;2022-10-22T08:36:19;13.98;;;7.93;;
64011;SDS011;50211;52.768;12.124;2022-10-22T08:38:45;13.68;;;7.80;;
64011;SDS011;50211;52.768;12.124;2022-10-22T08:41:11;11.48;;;7.28;;
64011;SDS011;50211;52.768;12.124;2022-10-22T08:43:52;14.43;;;8.05;;
64011;SDS011;50211;52.768;12.124;2022-10-22T08:49:40;14.02;;;8.43;;
64011;SDS011;50211;52.768;12.124;2022-10-22T08:52:08;13.18;;;8.25;;
64011;SDS011;50211;52.768;12.124;2022-10-22T08:54:49;12.98;;;8.45;;
64011;SDS011;50211;52.768;12.124;2022-10-22T08:57:22;13.23;;;8.27;;
64011;SDS011;50211;52.768;12.124;2022-10-22T09:00:02;15.40;;;8.55;;
64011;SDS011;50211;52.768;12.124;2022-10-22T09:07:45;12.82;;;8.30;;
64011;SDS011;50211;52.768;12.124;2022-10-22T09:10:14;17.10;;;8.40;;
64011;SDS011;50211;52.768;12.124;2022-10-22T09:12:41;10.27;;;7.38;;
64011;SDS011;50211;52.768;12.124;2022-10-22T09:15:11;13.25;;;7.82;;
64011;SDS011;50211;52.768;12.124;2022-10-22T09:17:40;15.50;;;8.15;;
64011;SDS011;50211;52.768;12.124;2022-10-22T09:20:31;16.45;;;7.93;;
64011;SDS011;50211;52.768;12.124;2022-10-22T09:23:28;14.43;;;8.57;;
64011;SDS011;50211;52.768;12.124;2022-10-22T09:26:01;11.75;;;7.50;;
64011;SDS011;50211;52.768;12.124;2022-10-22T09:28:29;14.38;;;7.68;;
64011;SDS011;50211;52.768;12.124;2022-10-22T09:30:54;18.35;;;8.13;;
64011;SDS011;50211;52.768;12.124;2022-10-22T09:33:24;11.52;;;7.43;;
64011;SDS011;50211;52.768;12.124;2022-10-22T09:35:52;14.00;;;6.97;;
64011;SDS011;50211;52.768;12.124;2022-10-22T09:38:20;12.25;;;7.32;;
64011;SDS011;50211;52.768;12.124;2022-10-22T09:40:51;12.07;;;7.45;;
64011;SDS011;50211;52.768;12.124;2022-10-22T09:43:18;11.60;;;7.38;;
64011;SDS011;50211;52.768;12.124;2022-10-22T09:45:44;9.73;;;6.70;;
64011;SDS011;50211;52.768;12.124;2022-10-22T09:48:13;13.90;;;7.03;;
64011;SDS011;50211;52.768;12.124;2022-10-22T09:50:45;13.35;;;7.40;;
64011;SDS011;50211;52.768;12.124;2022-10-22T09:55:50;15.65;;;8.68;;
64011;SDS011;50211;52.768;12.124;2022-10-22T09:58:17;13.57;;;7.88;;
64011;SDS011;50211;52.768;12.124;2022-10-22T10:00:44;12.57;;;7.97;;
64011;SDS011;50211;52.768;12.124;2022-10-22T10:03:19;14.90;;;8.80;;
64011;SDS011;50211;52.768;12.124;2022-10-22T10:05:51;23.73;;;8.93;;
64011;SDS011;50211;52.768;12.124;2022-10-22T10:08:18;14.10;;;8.30;;
64011;SDS011;50211;52.768;12.124;2022-10-22T10:10:51;11.55;;;7.68;;
64011;SDS011;50211;52.768;12.124;2022-10-22T10:13:24;13.23;;;7.93;;
64011;SDS011;50211;52.768;12.124;2022-10-22T10:15:55;11.73;;;7.88;;
64011;SDS011;50211;52.768;12.124;2022-10-22T10:21:59;15.93;;;7.57;;
64011;SDS011;50211;52.768;12.124;2022-10-22T10:24:55;10.25;;;6.50;;
64011;SDS011;50211;52.768;12.124;2022-10-22T10:27:47;12.75;;;6.35;;
64011;SDS011;50211;52.768;12.124;2022-10-22T10:30:22;8.85;;;6.05;;
64011;SDS011;50211;52.768;12.124;2022-10-22T10:33:04;15.63;;;6.00;;
64011;SDS011;50211;52.768;12.124;2022-10-22T10:38:29;9.90;;;5.55;;
64011;SDS011;50211;52.768;12.124;2022-10-22T10:41:12;9.60;;;5.10;;
64011;SDS011;50211;52.768;12.124;2022-10-22T10:43:58;12.77;;;5.32;;
64011;SDS011;50211;52.768;12.124;2022-10-22T10:46:31;10.50;;;5.55;;
64011;SDS011;50211;52.768;12.124;2022-10-22T10:49:23;10.75;;;5.00;;
64011;SDS011;50211;52.768;12.124;2022-10-22T10:54:55;8.30;;;4.35;;
64011;SDS011;50211;52.768;12.124;2022-10-22T10:57:45;6.78;;;3.95;;
64011;SDS011;50211;52.768;12.124;2022-10-22T11:00:28;7.57;;;4.25;;
64011;SDS011;50211;52.768;12.124;2022-10-22T11:05:44;7.80;;;3.70;;
64011;SDS011;50211;52.768;12.124;2022-10-22T11:08:21;7.88;;;3.90;;
64011;SDS011;50211;52.768;12.124;2022-10-22T11:10:53;8.85;;;4.20;;
64011;SDS011;50211;52.768;12.124;2022-10-22T11:16:23;8.98;;;3.70;;
64011;SDS011;50211;52.768;12.124;2022-10-22T11:19:12;5.53;;;3.30;;
64011;SDS011;50211;52.768;12.124;2022-10-22T11:24:45;6.75;;;2.88;;
64011;SDS011;50211;52.768;12.124;2022-10-22T11:30:00;6.70;;;2.97;;
64011;SDS011;50211;52.768;12.124;2022-10-22T11:32:35;4.90;;;2.97;;
64011;SDS011;50211;52.768;12.124;2022-10-22T11:35:02;9.85;;;3.63;;
64011;SDS011;50211;52.768;12.124;2022-10-22T11:37:32;5.55;;;2.53;;
64011;SDS011;50211;52.768;12.124;2022-10-22T11:40:03;6.57;;;2.25;;
64011;SDS011;50211;52.768;12.124;2022-10-22T11:42:49;9.15;;;3.10;;
64011;SDS011;50211;52.768;12.124;2022-10-22T11:50:49;5.70;;;2.15;;
64011;SDS011;50211;52.768;12.124;2022-10-22T11:55:50;8.45;;;2.80;;
64011;SDS011;50211;52.768;12.124;2022-10-22T11:58:24;4.45;;;2.67;;
64011;SDS011;50211;52.768;12.124;2022-10-22T12:08:29;7.00;;;2.80;;
64011;SDS011;50211;52.768;12.124;2022-10-22T12:12:00;4.95;;;2.50;;
64011;SDS011;50211;52.768;12.124;2022-10-22T12:14:12;5.22;;;2.53;;
64011;SDS011;50211;52.768;12.124;2022-10-22T12:17:29;9.20;;;2.78;;
64011;SDS011;50211;52.768;12.124;2022-10-22T12:19:50;10.57;;;2.75;;
64011;SDS011;50211;52.768;12.124;2022-10-22T12:22:25;5.78;;;2.42;;
64011;SDS011;50211;52.768;12.124;2022-10-22T12:24:52;13.60;;;2.40;;
64011;SDS011;50211;52.768;12.124;2022-10-22T12:27:22;6.13;;;2.45;;
64011;SDS011;50211;52.768;12.124;2022-10-22T12:29:56;3.72;;;1.92;;
64011;SDS011;50211;52.768;12.124;2022-10-22T12:32:23;6.72;;;2.05;;
64011;SDS011;50211;52.768;12.124;2022-10-22T12:35:03;7.25;;;2.03;;
64011;SDS011;50211;52.768;12.124;2022-10-22T12:37:33;6.20;;;1.80;;
64011;SDS011;50211;52.768;12.124;2022-10-22T12:40:00;6.28;;;1.65;;
64011;SDS011;50211;52.768;12.124;2022-10-22T12:42:27;6.60;;;2.22;;
64011;SDS011;50211;52.768;12.124;2022-10-22T12:44:57;9.73;;;2.13;;
64011;SDS011;50211;52.768;12.124;2022-10-22T12:47:22;7.00;;;1.73;;
64011;SDS011;50211;52.768;12.124;2022-10-22T12:49:48;10.23;;;2.45;;
64011;SDS011;50211;52.768;12.124;2022-10-22T12:52:16;6.80;;;1.60;;
64011;SDS011;50211;52.768;12.124;2022-10-22T12:54:44;5.35;;;1.80;;
64011;SDS011;50211;52.768;12.124;2022-10-22T12:57:12;8.43;;;1.83;;
64011;SDS011;50211;52.768;12.124;2022-10-22T12:59:39;6.32;;;1.92;;
64011;SDS011;50211;52.768;12.124;2022-10-22T13:02:14;10.02;;;1.83;;
64011;SDS011;50211;52.768;12.124;2022-10-22T13:05:03;8.32;;;2.00;;
64011;SDS011;50211;52.768;12.124;2022-10-22T13:07:39;5.75;;;1.60;;
64011;SDS011;50211;52.768;12.124;2022-10-22T13:10:13;3.45;;;1.70;;
64011;SDS011;50211;52.768;12.124;2022-10-22T13:12:59;7.03;;;1.80;;
64011;SDS011;50211;52.768;12.124;2022-10-22T13:18:02;5.28;;;1.95;;
64011;SDS011;50211;52.768;12.124;2022-10-22T13:20:31;4.40;;;1.38;;
64011;SDS011;50211;52.768;12.124;2022-10-22T13:22:57;10.15;;;2.10;;
64011;SDS011;50211;52.768;12.124;2022-10-22T13:25:30;5.38;;;2.00;;
64011;SDS011;50211;52.768;12.124;2022-10-22T13:28:01;4.93;;;1.92;;
64011;SDS011;50211;52.768;12.124;2022-10-22T13:30:36;7.32;;;1.60;;
64011;SDS011;50211;52.768;12.124;2022-10-22T13:33:04;9.02;;;1.83;;
64011;SDS011;50211;52.768;12.124;2022-10-22T13:35:33;9.93;;;1.95;;
64011;SDS011;50211;52.768;12.124;2022-10-22T13:38:01;4.10;;;1.45;;
64011;SDS011;50211;52.768;12.124;2022-10-22T13:40:27;8.13;;;2.35;;
64011;SDS011;50211;52.768;12.124;2022-10-22T13:42:52;9.02;;;2.00;;
64011;SDS011;50211;52.768;12.124;2022-10-22T13:45:18;7.72;;;1.95;;
64011;SDS011;50211;52.768;12.124;2022-10-22T13:47:46;5.60;;;1.50;;
64011;SDS011;50211;52.768;12.124;2022-10-22T13:50:15;8.07;;;2.33;;
64011;SDS011;50211;52.768;12.124;2022-10-22T13:52:49;8.60;;;2.10;;
64011;SDS011;50211;52.768;12.124;2022-10-22T13:55:21;6.78;;;2.42;;
64011;SDS011;50211;52.768;12.124;2022-10-22T13:57:54;5.28;;;2.03;;
64011;SDS011;50211;52.768;12.124;2022-10-22T14:00:21;4.95;;;2.25;;
64011;SDS011;50211;52.768;12.124;2022-10-22T14:02:47;11.25;;;2.03;;
64011;SDS011;50211;52.768;12.124;2022-10-22T14:05:16;5.22;;;1.95;;
64011;SDS011;50211;52.768;12.124;2022-10-22T14:07:42;6.28;;;2.00;;
64011;SDS011;50211;52.768;12.124;2022-10-22T14:10:12;12.90;;;2.03;;
64011;SDS011;50211;52.768;12.124;2022-10-22T14:12:39;4.72;;;2.00;;
64011;SDS011;50211;52.768;12.124;2022-10-22T14:15:04;5.20;;;1.85;;
64011;SDS011;50211;52.768;12.124;2022-10-22T14:17:30;5.35;;;1.50;;
64011;SDS011;50211;52.768;12.124;2022-10-22T14:19:56;5.03;;;1.90;;
64011;SDS011;50211;52.768;12.124;2022-10-22T14:22:21;4.35;;;1.85;;
64011;SDS011;50211;52.768;12.124;2022-10-22T14:24:50;7.53;;;2.28;;
64011;SDS011;50211;52.768;12.124;2022-10-22T14:27:16;9.40;;;2.05;;
64011;SDS011;50211;52.768;12.124;2022-10-22T14:29:42;7.53;;;1.75;;
64011;SDS011;50211;52.768;12.124;2022-10-22T14:32:11;3.88;;;1.60;;
64011;SDS011;50211;52.768;12.124;2022-10-22T14:34:38;4.68;;;1.52;;
64011;SDS011;50211;52.768;12.124;2022-10-22T14:37:04;6.30;;;1.80;;
64011;SDS011;50211;52.768;12.124;2022-10-22T14:39:37;6.43;;;2.03;;
64011;SDS011;50211;52.768;12.124;2022-10-22T14:42:02;6.10;;;1.77;;
64011;SDS011;50211;52.768;12.124;2022-10-22T14:44:28;5.53;;;1.95;;
64011;SDS011;50211;52.768;12.124;2022-10-22T14:46:53;6.70;;;2.00;;
64011;SDS011;50211;52.768;12.124;2022-10-22T14:49:20;5.07;;;1.90;;
64011;SDS011;50211;52.768;12.124;2022-10-22T14:51:46;9.43;;;1.67;;
64011;SDS011;50211;52.768;12.124;2022-10-22T14:54:11;3.05;;;1.63;;
64011;SDS011;50211;52.768;12.124;2022-10-22T14:56:37;5.65;;;1.75;;
64011;SDS011;50211;52.768;12.124;2022-10-22T14:59:02;5.90;;;1.73;;
64011;SDS011;50211;52.768;12.124;2022-10-22T15:01:28;4.85;;;1.40;;
64011;SDS011;50211;52.768;12.124;2022-10-22T15:03:53;8.32;;;1.98;;
64011;SDS011;50211;52.768;12.124;2022-10-22T15:06:19;5.32;;;2.08;;
64011;SDS011;50211;52.768;12.124;2022-10-22T15:08:44;2.50;;;1.75;;
64011;SDS011;50211;52.768;12.124;2022-10-22T15:11:10;6.05;;;2.00;;
64011;SDS011;50211;52.768;12.124;2022-10-22T15:13:36;5.28;;;1.90;;
64011;SDS011;50211;52.768;12.124;2022-10-22T15:16:07;4.13;;;2.03;;
64011;SDS011;50211;52.768;12.124;2022-10-22T15:18:34;3.92;;;2.17;;
64011;SDS011;50211;52.768;12.124;2022-10-22T15:21:04;10.55;;;2.38;;
64011;SDS011;50211;52.768;12.124;2022-10-22T15:23:31;9.57;;;2.90;;
64011;SDS011;50211;52.768;12.124;2022-10-22T15:25:57;6.15;;;2.25;;
64011;SDS011;50211;52.768;12.124;2022-10-22T15:28:23;8.90;;;2.50;;
64011;SDS011;50211;52.768;12.124;2022-10-22T15:30:56;6.53;;;2.20;;
64011;SDS011;50211;52.768;12.124;2022-10-22T15:33:23;4.20;;;2.25;;
64011;SDS011;50211;52.768;12.124;2022-10-22T15:35:49;3.72;;;2.13;;
64011;SDS011;50211;52.768;12.124;2022-10-22T15:38:14;5.22;;;2.67;;
64011;SDS011;50211;52.768;12.124;2022-10-22T15:40:40;9.95;;;3.85;;